• Join FlightAware (Why Join?)
  • Login
  • US Flag 
09:46AM EDT


 

Airport Tracker/Info


-or-


 

Live Flight TrackerFlight Track Log ✈ CSN6385 ✈ 19-May-2013 ✈ ZGKL / KWL - ZSJN / TNA

Flight Track Log - Related Links

Times and Time Zones

All times are in EDT time to prevent confusion due to time zone crossing. See the CSN6385 flight status page for this flight to view local times or setup timezone preferences in your user account.

Time Position Orientation Groundspeed Altitude Reporting Facility
EDT Latitude Longitude Course Direction KTS MPH feet Rate Location/Type
08:19PM 25.3328 110.1013 26° Northeast  Level Estimated
08:20PM 25.4475 110.1635 26° Northeast  Level Estimated
08:21PM 25.5622 110.2258 26° Northeast  Level Estimated
08:22PM 25.6769 110.2882 26° Northeast  Level Estimated
08:23PM 25.7915 110.3508 26° Northeast  Level Estimated
08:24PM 25.9061 110.4135 26° Northeast  Level Estimated
08:25PM 26.0207 110.4763 26° Northeast  Level Estimated
08:26PM 26.1352 110.5392 26° Northeast  Level Estimated
08:27PM 26.2498 110.6023 26° Northeast  Level Estimated
08:28PM 26.3642 110.6654 26° Northeast  Level Estimated
08:29PM 26.4787 110.7287 26° Northeast  Level Estimated
08:30PM 26.5931 110.7922 26° Northeast  Level Estimated
08:31PM 26.7076 110.8557 26° Northeast  Level Estimated
08:32PM 26.8219 110.9194 26° Northeast  Level Estimated
08:33PM 26.9363 110.9832 26° Northeast  Level Estimated
08:34PM 27.0506 111.0471 26° Northeast  Level Estimated
08:35PM 27.1649 111.1112 27° Northeast  Level Estimated
08:36PM 27.2792 111.1754 27° Northeast  Level Estimated
08:37PM 27.3934 111.2398 27° Northeast  Level Estimated
08:38PM 27.5076 111.3042 27° Northeast  Level Estimated
08:39PM 27.6218 111.3688 27° Northeast  Level Estimated
08:40PM 27.7359 111.4336 27° Northeast  Level Estimated
08:41PM 27.8500 111.4984 27° Northeast  Level Estimated
08:42PM 27.9641 111.5634 27° Northeast  Level Estimated
08:43PM 28.0782 111.6286 27° Northeast  Level Estimated
08:44PM 28.1922 111.6939 27° Northeast  Level Estimated
08:45PM 28.3062 111.7593 27° Northeast  Level Estimated
08:46PM 28.4202 111.8249 27° Northeast  Level Estimated
08:47PM 28.5341 111.8906 27° Northeast  Level Estimated
08:48PM 28.6480 111.9564 27° Northeast  Level Estimated
08:49PM 28.7619 112.0224 27° Northeast  Level Estimated
08:50PM 28.8757 112.0885 27° Northeast  Level Estimated
08:51PM 28.9895 112.1548 27° Northeast  Level Estimated
08:52PM 29.1033 112.2212 27° Northeast  Level Estimated
08:53PM 29.2170 112.2878 27° Northeast  Level Estimated
08:54PM 29.3307 112.3545 27° Northeast  Level Estimated
08:55PM 29.4444 112.4214 27° Northeast  Level Estimated
08:56PM 29.5580 112.4884 27° Northeast  Level Estimated
08:57PM 29.6716 112.5556 27° Northeast  Level Estimated
08:58PM 29.7852 112.6229 27° Northeast  Level Estimated
08:59PM 29.8987 112.6904 27° Northeast  Level Estimated
09:00PM 30.0122 112.7580 27° Northeast  Level Estimated
09:01PM 30.1257 112.8258 27° Northeast  Level Estimated
09:02PM 30.2391 112.8937 27° Northeast  Level Estimated
09:03PM 30.3525 112.9618 27° Northeast  Level Estimated
09:04PM 30.4659 113.0301 27° Northeast  Level Estimated
09:05PM 30.5792 113.0985 27° Northeast  Level Estimated
09:06PM 30.6925 113.1671 27° Northeast  Level Estimated
09:07PM 30.8057 113.2358 28° Northeast  Level Estimated
09:08PM 30.9189 113.3047 28° Northeast  Level Estimated
09:09PM 31.0321 113.3738 28° Northeast  Level Estimated
09:10PM 31.1453 113.4430 28° Northeast  Level Estimated
09:11PM 31.2584 113.5124 28° Northeast  Level Estimated
09:12PM 31.3715 113.5819 28° Northeast  Level Estimated
09:13PM 31.4845 113.6517 28° Northeast  Level Estimated
09:14PM 31.5975 113.7216 28° Northeast  Level Estimated
09:15PM 31.7104 113.7916 28° Northeast  Level Estimated
09:16PM 31.8233 113.8618 28° Northeast  Level Estimated
09:17PM 31.9362 113.9323 28° Northeast  Level Estimated
09:18PM 32.0491 114.0028 28° Northeast  Level Estimated
09:19PM 32.1619 114.0736 28° Northeast  Level Estimated
09:20PM 32.2746 114.1445 28° Northeast  Level Estimated
09:21PM 32.3873 114.2156 28° Northeast  Level Estimated
09:22PM 32.5000 114.2869 28° Northeast  Level Estimated
09:23PM 32.6127 114.3584 28° Northeast  Level Estimated
09:24PM 32.7253 114.4300 28° Northeast  Level Estimated
09:25PM 32.8378 114.5018 28° Northeast  Level Estimated
09:26PM 32.9503 114.5738 28° Northeast  Level Estimated
09:27PM 33.0628 114.6460 28° Northeast  Level Estimated
09:28PM 33.1753 114.7184 28° Northeast  Level Estimated
09:29PM 33.2876 114.7910 28° Northeast  Level Estimated
09:30PM 33.4000 114.8637 28° Northeast  Level Estimated
09:31PM 33.5123 114.9366 28° Northeast  Level Estimated
09:32PM 33.6246 115.0098 28° Northeast  Level Estimated
09:33PM 33.7368 115.0831 29° Northeast  Level Estimated
09:34PM 33.8490 115.1566 29° Northeast  Level Estimated
09:35PM 33.9611 115.2303 29° Northeast  Level Estimated
09:36PM 34.0732 115.3042 29° Northeast  Level Estimated
09:37PM 34.1852 115.3783 29° Northeast  Level Estimated
09:38PM 34.2972 115.4526 29° Northeast  Level Estimated
09:39PM 34.4092 115.5270 29° Northeast  Level Estimated
09:40PM 34.5211 115.6017 29° Northeast  Level Estimated
09:41PM 34.6330 115.6766 29° Northeast  Level Estimated
09:42PM 34.7448 115.7517 29° Northeast  Level Estimated
09:43PM 34.8566 115.8270 29° Northeast  Level Estimated
09:44PM 34.9683 115.9025 29° Northeast  Level Estimated
09:45PM 35.0800 115.9782 29° Northeast  Level Estimated
09:46PM 35.1916 116.0541 29° Northeast  Level Estimated
09:47PM 35.3032 116.1302 29° Northeast  Level Estimated
09:48PM 35.4147 116.2066 29° Northeast  Level Estimated
09:49PM 35.5262 116.2831 29° Northeast  Level Estimated
09:50PM 35.6377 116.3598 29° Northeast  Level Estimated
09:51PM 35.7491 116.4368 29° Northeast  Level Estimated
09:52PM 35.8604 116.5140 29° Northeast  Level Estimated
09:53PM 35.9717 116.5914 29° Northeast  Level Estimated
09:54PM 36.0829 116.6690 29° Northeast  Level Estimated
09:55PM 36.1941 116.7469 29° Northeast  Level Estimated
09:56PM 36.3052 116.8249 30° Northeast  Level Estimated
09:57PM 36.4163 116.9032 30° Northeast  Level Estimated
09:58PM 36.5274 116.9817 30° Northeast  Level Estimated
09:59PM 36.6384 117.0604 30° Northeast  Level Estimated
10:00PM 36.7493 117.1394 30° Northeast  Level Estimated
10:01PM 36.8566 117.2160 30° Northeast  Level Estimated
10:02PM 36.8566 117.2160 73° East  Level Estimated
10:03PM 36.8566 117.2160 73° East  Level Estimated
10:04PM 36.8566 117.2160 73° East  Level Estimated
10:05PM 36.8566 117.2160 73° East  Level Estimated
10:06PM 36.8566 117.2160 73° East  Level Estimated
10:07PM 36.8566 117.2160 73° East  Level Estimated
10:08PM 36.8566 117.2160 73° East  Level Estimated
10:09PM 36.8566 117.2160 73° East  Level Estimated
10:10PM 36.8566 117.2160 73° East  Level Estimated
10:11PM 36.8566 117.2160 73° East  Level Estimated
10:12PM 36.8566 117.2160 73° East  Level Estimated
10:13PM 36.8566 117.2160 73° East  Level Estimated
10:14PM 36.8566 117.2160 73° East  Level Estimated
10:15PM 36.8566 117.2160 73° East  Level Estimated